createdAt,value
2018-04-24T00:01:44.666Z,84.40
2018-04-24T00:04:13.009Z,86.10
2018-04-24T00:06:40.671Z,86.10
2018-04-24T00:09:08.197Z,86.80
2018-04-24T00:11:35.720Z,85.80
2018-04-24T00:14:04.000Z,85.80
2018-04-24T00:16:32.281Z,87.00
2018-04-24T00:18:59.823Z,87.00
2018-04-24T00:21:28.302Z,87.20
2018-04-24T00:23:56.585Z,86.30
2018-04-24T00:26:24.853Z,86.80
2018-04-24T00:28:53.133Z,87.40
2018-04-24T00:31:21.530Z,86.30
2018-04-24T00:33:52.952Z,86.20
2018-04-24T00:36:21.237Z,85.60
2018-04-24T00:38:49.510Z,85.50
2018-04-24T00:41:17.785Z,86.10
2018-04-24T00:43:46.059Z,87.80
2018-04-24T00:46:14.344Z,87.50
2018-04-24T00:48:42.622Z,87.00
2018-04-24T00:51:11.016Z,85.70
2018-04-24T00:53:40.411Z,85.70
2018-04-24T00:56:07.923Z,88.20
2018-04-24T00:58:35.593Z,88.10
2018-04-24T01:01:03.097Z,87.90
2018-04-24T01:03:31.553Z,89.80
2018-04-24T01:05:59.897Z,89.10
2018-04-24T01:08:27.441Z,89.10
2018-04-24T01:10:55.451Z,89.20
2018-04-24T01:13:23.745Z,89.30
2018-04-24T01:15:52.022Z,89.70
2018-04-24T01:18:20.289Z,89.60
2018-04-24T01:20:48.576Z,90.10
2018-04-24T01:23:16.854Z,90.10
2018-04-24T01:25:45.237Z,89.90
2018-04-24T01:28:13.513Z,89.90
2018-04-24T01:30:41.781Z,90.00
2018-04-24T01:33:10.091Z,90.00
2018-04-24T01:35:37.632Z,89.70
2018-04-24T01:38:05.149Z,90.00
2018-04-24T01:40:32.694Z,88.40
2018-04-24T01:43:00.404Z,89.80
2018-04-24T01:45:29.138Z,89.50
2018-04-24T01:47:56.649Z,89.40
2018-04-24T01:50:25.043Z,90.20
2018-04-24T01:52:52.557Z,90.20
2018-04-24T01:55:20.057Z,90.10
2018-04-24T01:57:47.569Z,90.10
2018-04-24T02:00:15.101Z,90.00
2018-04-24T02:02:42.613Z,88.90
2018-04-24T02:05:10.908Z,88.60
2018-04-24T02:07:38.410Z,88.50
2018-04-24T02:10:05.943Z,87.30
2018-04-24T02:12:33.452Z,87.80
2018-04-24T02:15:02.038Z,90.00
2018-04-24T02:17:30.315Z,90.70
2018-04-24T02:19:58.595Z,90.50
2018-04-24T02:22:26.966Z,91.10
2018-04-24T02:24:55.296Z,90.20
2018-04-24T02:27:24.378Z,89.30
2018-04-24T02:29:51.889Z,89.30
2018-04-24T02:32:19.512Z,89.30
2018-04-24T02:34:48.061Z,90.30
2018-04-24T02:37:16.350Z,89.90
2018-04-24T02:39:44.377Z,89.80
2018-04-24T02:42:11.882Z,90.20
2018-04-24T02:44:39.538Z,90.20
2018-04-24T02:47:07.809Z,90.30
2018-04-24T02:49:36.279Z,90.60
2018-04-24T02:52:04.554Z,90.90
2018-04-24T02:54:32.821Z,90.30
2018-04-24T02:57:00.333Z,90.30
2018-04-24T02:59:27.847Z,90.40
2018-04-24T03:01:56.127Z,89.80
2018-04-24T03:04:24.398Z,90.10
2018-04-24T03:06:52.669Z,90.80
2018-04-24T03:09:20.956Z,91.00
2018-04-24T03:11:49.229Z,91.00
2018-04-24T03:14:17.507Z,91.30
2018-04-24T03:16:46.542Z,91.70
2018-04-24T03:19:14.266Z,91.70
2018-04-24T03:21:42.557Z,90.30
2018-04-24T03:24:10.078Z,90.30
2018-04-24T03:26:37.589Z,90.40
2018-04-24T03:29:05.236Z,89.60
2018-04-24T03:31:32.754Z,89.30
2018-04-24T03:34:00.278Z,89.40
2018-04-24T03:36:27.920Z,90.00
2018-04-24T03:38:55.572Z,90.10
2018-04-24T03:41:23.855Z,91.40
2018-04-24T03:43:51.477Z,91.40
2018-04-24T03:46:20.626Z,91.50
2018-04-24T03:48:48.291Z,91.40
2018-04-24T03:51:15.797Z,91.20
2018-04-24T03:53:44.816Z,90.50
2018-04-24T03:56:13.087Z,90.60
2018-04-24T03:58:41.513Z,90.20
2018-04-24T04:01:09.063Z,90.20
2018-04-24T04:03:36.595Z,90.20
2018-04-24T04:06:04.903Z,90.70
2018-04-24T04:08:32.402Z,90.70
2018-04-24T04:10:59.908Z,90.80
2018-04-24T04:13:28.179Z,90.20
2018-04-24T04:15:55.781Z,90.20
2018-04-24T04:18:35.236Z,90.10
2018-04-24T04:21:14.738Z,90.40
2018-04-24T04:23:54.162Z,90.50
2018-04-24T04:26:21.769Z,90.90
2018-04-24T04:28:50.142Z,90.60
2018-04-24T04:31:17.641Z,90.40
2018-04-24T04:33:45.321Z,90.10
2018-04-24T04:36:12.824Z,91.20
2018-04-24T04:38:40.366Z,90.40
2018-04-24T04:41:07.895Z,90.60
2018-04-24T04:43:35.413Z,90.80
2018-04-24T04:46:02.924Z,90.90
2018-04-24T04:48:30.611Z,90.90
2018-04-24T04:50:58.118Z,91.00
2018-04-24T04:53:25.621Z,90.50
2018-04-24T04:55:53.147Z,90.70
2018-04-24T04:58:20.665Z,91.10
2018-04-24T05:00:48.213Z,90.30
2018-04-24T05:03:15.877Z,91.50
2018-04-24T05:05:44.416Z,90.90
2018-04-24T05:08:11.937Z,90.50
2018-04-24T05:10:40.214Z,91.40
2018-04-24T05:13:08.486Z,91.50
2018-04-24T05:15:36.764Z,91.00
2018-04-24T05:18:05.050Z,90.50
2018-04-24T05:20:33.402Z,91.10
2018-04-24T05:23:00.934Z,91.10
2018-04-24T05:25:28.571Z,90.10
2018-04-24T05:27:56.097Z,90.60
2018-04-24T05:30:24.365Z,90.10
2018-04-24T05:32:51.881Z,90.10
2018-04-24T05:35:19.423Z,89.30
2018-04-24T05:37:46.950Z,90.50
2018-04-24T05:40:15.230Z,91.30
2018-04-24T05:45:18.291Z,91.30
2018-04-24T05:47:45.825Z,91.30
2018-04-24T05:50:13.334Z,91.30
2018-04-24T05:52:41.083Z,91.10
2018-04-24T05:55:08.590Z,90.80
2018-04-24T05:57:36.167Z,90.70
2018-04-24T06:00:03.771Z,90.80
2018-04-24T06:02:31.284Z,90.60
2018-04-24T06:04:58.806Z,90.40
2018-04-24T06:07:27.089Z,90.00
2018-04-24T06:09:55.373Z,90.20
2018-04-24T06:12:23.653Z,89.30
2018-04-24T06:14:51.944Z,88.90
2018-04-24T06:17:19.454Z,88.80
2018-04-24T06:19:47.545Z,88.50
2018-04-24T06:22:16.538Z,88.60
2018-04-24T06:24:44.820Z,87.40
2018-04-24T06:27:13.171Z,86.60
2018-04-24T06:29:40.865Z,86.50
2018-04-24T06:32:09.746Z,85.30
2018-04-24T06:34:38.023Z,84.60
2018-04-24T06:37:06.290Z,83.80
2018-04-24T06:39:34.568Z,83.10
2018-04-24T06:42:02.086Z,83.00
2018-04-24T06:44:29.593Z,82.10
2018-04-24T06:46:57.870Z,81.30
2018-04-24T06:49:26.171Z,79.80
2018-04-24T06:51:53.694Z,79.80
2018-04-24T06:54:21.974Z,77.80
2018-04-24T06:56:50.253Z,77.20
2018-04-24T06:59:18.536Z,76.50
2018-04-24T07:01:46.826Z,76.30
2018-04-24T07:04:14.336Z,76.30
2018-04-24T07:06:41.906Z,75.20
2018-04-24T07:09:09.426Z,75.30
2018-04-24T07:11:36.957Z,75.00
2018-04-24T07:14:05.393Z,74.30
2018-04-24T07:16:32.906Z,74.20
2018-04-24T07:19:01.142Z,73.40
2018-04-24T07:21:28.661Z,73.20
2018-04-24T07:23:56.169Z,72.40
2018-04-24T07:26:24.453Z,71.70
2018-04-24T07:28:52.750Z,69.90
2018-04-24T07:31:20.257Z,69.80
2018-04-24T07:33:49.277Z,68.50
2018-04-24T07:36:17.560Z,67.70
2018-04-24T07:38:45.969Z,66.80
2018-04-24T07:41:13.478Z,66.70
2018-04-24T07:43:42.639Z,66.90
2018-04-24T07:46:10.166Z,66.80
2018-04-24T07:48:38.461Z,64.50
2018-04-24T07:51:06.902Z,64.40
2018-04-24T07:53:35.395Z,65.20
2018-04-24T07:56:04.591Z,65.50
2018-04-24T07:58:32.962Z,65.60
2018-04-24T08:01:01.251Z,64.20
2018-04-24T08:03:29.518Z,64.00
2018-04-24T08:05:57.797Z,62.80
2018-04-24T08:08:26.069Z,60.80
2018-04-24T08:10:54.361Z,60.20
2018-04-24T08:13:22.633Z,59.50
2018-04-24T08:15:50.913Z,58.50
2018-04-24T08:18:19.193Z,58.50
2018-04-24T08:20:47.465Z,58.60
2018-04-24T08:23:15.741Z,58.90
2018-04-24T08:25:44.014Z,58.80
2018-04-24T08:28:12.287Z,58.80
2018-04-24T08:30:41.243Z,59.60
2018-04-24T08:33:08.754Z,59.50
2018-04-24T08:35:36.269Z,59.00
2018-04-24T08:38:03.788Z,58.30
2018-04-24T08:40:32.333Z,59.30
2018-04-24T08:43:00.597Z,58.20
2018-04-24T08:45:28.146Z,58.10
2018-04-24T08:47:55.709Z,57.30
2018-04-24T08:50:23.216Z,58.30
2018-04-24T08:52:50.728Z,57.80
2018-04-24T08:55:18.249Z,58.10
2018-04-24T08:57:46.038Z,58.20
2018-04-24T09:00:13.542Z,58.30
2018-04-24T09:02:41.049Z,57.80
2018-04-24T09:05:08.561Z,57.10
2018-04-24T09:07:36.249Z,57.70
2018-04-24T09:10:03.754Z,58.10
2018-04-24T09:12:31.506Z,57.20
2018-04-24T09:14:59.011Z,57.30
2018-04-24T09:17:27.083Z,55.10
2018-04-24T09:19:54.596Z,56.20
2018-04-24T09:22:23.618Z,55.30
2018-04-24T09:24:52.037Z,55.00
2018-04-24T09:27:19.733Z,54.90
2018-04-24T09:30:03.865Z,54.70
2018-04-24T09:32:31.390Z,54.60
2018-04-24T09:34:58.901Z,55.50
2018-04-24T09:37:27.203Z,53.40
2018-04-24T09:39:54.952Z,53.30
2018-04-24T09:42:23.229Z,53.90
2018-04-24T09:44:51.533Z,53.40
2018-04-24T09:47:19.042Z,53.40
2018-04-24T09:49:46.566Z,54.50
2018-04-24T09:52:14.215Z,53.80
2018-04-24T09:54:41.766Z,54.00
2018-04-24T09:57:09.279Z,54.60
2018-04-24T09:59:36.969Z,52.40
2018-04-24T10:02:05.237Z,50.80
2018-04-24T10:04:33.613Z,50.10
2018-04-24T10:07:01.131Z,50.10
2018-04-24T10:09:28.633Z,50.00
2018-04-24T10:11:56.906Z,50.40
2018-04-24T10:14:25.210Z,51.40
2018-04-24T10:16:52.718Z,50.90
2018-04-24T10:19:20.249Z,50.60
2018-04-24T10:21:47.844Z,49.30
2018-04-24T10:24:16.860Z,47.70
2018-04-24T10:26:45.141Z,50.50
2018-04-24T10:29:13.429Z,50.20
2018-04-24T10:31:40.948Z,50.20
2018-04-24T10:34:08.498Z,50.60
2018-04-24T10:36:36.061Z,48.30
2018-04-24T10:39:03.742Z,49.40
2018-04-24T10:41:31.700Z,47.70
2018-04-24T10:43:59.226Z,47.40
2018-04-24T10:46:26.815Z,48.30
2018-04-24T10:48:54.322Z,47.70
2018-04-24T10:51:21.866Z,47.90
2018-04-24T10:53:50.164Z,48.80
2018-04-24T10:56:17.703Z,48.70
2018-04-24T10:58:46.379Z,52.40
2018-04-24T11:01:14.653Z,53.50
2018-04-24T11:03:42.949Z,52.60
2018-04-24T11:06:11.244Z,52.00
2018-04-24T11:08:38.745Z,52.10
2018-04-24T11:11:06.363Z,50.70
2018-04-24T11:13:33.882Z,52.40
2018-04-24T11:16:02.170Z,53.10
2018-04-24T11:18:30.443Z,53.60
2018-04-24T11:20:58.722Z,53.80
2018-04-24T11:23:27.000Z,53.80
2018-04-24T11:25:55.773Z,53.60
2018-04-24T11:28:24.180Z,55.60
2018-04-24T11:30:51.763Z,55.50
2018-04-24T11:33:19.273Z,55.80
2018-04-24T11:35:48.281Z,52.80
2018-04-24T11:38:17.278Z,54.60
2018-04-24T11:40:45.549Z,52.70
2018-04-24T11:43:13.826Z,52.50
2018-04-24T11:45:42.127Z,53.20
2018-04-24T11:48:09.645Z,53.20
2018-04-24T11:50:37.977Z,53.80
2018-04-24T11:53:06.213Z,54.10
2018-04-24T11:55:34.487Z,53.40
2018-04-24T11:58:02.769Z,53.90
2018-04-24T12:00:31.273Z,53.90
2018-04-24T12:02:58.778Z,53.90
2018-04-24T12:05:26.341Z,53.70
2018-04-24T12:07:53.859Z,53.00
2018-04-24T12:10:21.363Z,53.30
2018-04-24T12:12:50.376Z,53.20
2018-04-24T12:15:18.925Z,53.90
2018-04-24T12:17:46.453Z,53.90
2018-04-24T12:20:13.957Z,52.80
2018-04-24T12:22:41.613Z,53.30
2018-04-24T12:25:09.135Z,54.50
2018-04-24T12:27:36.645Z,52.90
2018-04-24T12:30:05.017Z,51.10
2018-04-24T12:32:32.614Z,51.10
2018-04-24T12:35:00.164Z,51.10
2018-04-24T12:37:27.890Z,51.20
2018-04-24T12:39:55.492Z,50.30
2018-04-24T12:42:22.997Z,51.60
2018-04-24T12:44:50.591Z,51.60
2018-04-24T12:47:18.881Z,53.70
2018-04-24T12:49:46.565Z,53.60
2018-04-24T12:52:14.073Z,53.30
2018-04-24T12:54:41.604Z,52.60
2018-04-24T12:57:09.278Z,53.60
2018-04-24T12:59:36.801Z,52.70
2018-04-24T13:02:04.332Z,52.50
2018-04-24T13:04:33.576Z,54.50
2018-04-24T13:07:01.289Z,54.50
2018-04-24T13:09:29.572Z,52.60
2018-04-24T13:11:57.872Z,52.60
2018-04-24T13:14:25.406Z,52.60
2018-04-24T13:16:52.915Z,52.80
2018-04-24T13:19:20.954Z,52.80
2018-04-24T13:21:48.483Z,52.60
2018-04-24T13:24:16.888Z,52.20
2018-04-24T13:26:44.426Z,52.10
2018-04-24T13:29:12.737Z,53.40
2018-04-24T13:31:40.566Z,53.40
2018-04-24T13:34:09.665Z,51.00
2018-04-24T13:36:37.942Z,51.50
2018-04-24T13:39:06.227Z,50.10
2018-04-24T13:41:35.383Z,52.40
2018-04-24T13:44:03.011Z,52.40
2018-04-24T13:46:30.532Z,51.80
2018-04-24T13:48:58.860Z,52.50
2018-04-24T13:51:26.462Z,52.40
2018-04-24T13:53:54.768Z,51.80
2018-04-24T13:56:22.358Z,52.40
2018-04-24T13:58:49.874Z,52.60
2018-04-24T14:01:18.161Z,52.20
2018-04-24T14:03:45.699Z,52.20
2018-04-24T14:06:13.984Z,52.50
2018-04-24T14:08:42.395Z,52.60
2018-04-24T14:11:09.925Z,52.60
2018-04-24T14:13:38.608Z,51.80
2018-04-24T14:16:06.887Z,51.50
2018-04-24T14:18:35.181Z,51.50
2018-04-24T14:21:02.850Z,51.50
2018-04-24T14:23:30.385Z,51.30
2018-04-24T14:25:58.671Z,50.80
2018-04-24T14:28:26.181Z,50.70
2018-04-24T14:30:53.710Z,51.70
2018-04-24T14:33:21.310Z,50.40
2018-04-24T14:35:48.820Z,50.60
2018-04-24T14:38:16.346Z,50.90
2018-04-24T14:40:45.821Z,51.50
2018-04-24T14:43:13.327Z,51.40
2018-04-24T14:45:40.854Z,49.90
2018-04-24T14:48:08.358Z,50.00
2018-04-24T14:50:36.003Z,49.40
2018-04-24T14:53:03.529Z,50.60
2018-04-24T14:55:31.860Z,50.70
2018-04-24T14:57:59.382Z,50.60
2018-04-24T15:00:27.880Z,49.40
2018-04-24T15:02:56.145Z,47.80
2018-04-24T15:05:24.430Z,48.40
2018-04-24T15:07:51.948Z,48.40
2018-04-24T15:10:19.460Z,49.10
2018-04-24T15:12:47.495Z,49.60
2018-04-24T15:15:15.915Z,50.30
2018-04-24T15:17:43.632Z,50.20
2018-04-24T15:20:11.174Z,50.80
2018-04-24T15:22:38.802Z,50.30
2018-04-24T15:25:06.336Z,51.10
2018-04-24T15:27:34.609Z,51.50
2018-04-24T15:30:02.877Z,51.40
2018-04-24T15:32:30.404Z,51.30
2018-04-24T15:34:57.979Z,51.00
2018-04-24T15:37:26.995Z,50.80
2018-04-24T15:39:55.278Z,52.20
2018-04-24T15:42:23.554Z,52.00
2018-04-24T15:44:51.905Z,51.30
2018-04-24T15:47:19.428Z,51.30
2018-04-24T15:49:46.990Z,51.50
2018-04-24T15:52:14.553Z,51.10
2018-04-24T15:54:42.131Z,50.00
2018-04-24T15:57:09.760Z,50.00
2018-04-24T15:59:37.275Z,49.50
2018-04-24T16:02:05.635Z,49.80
2018-04-24T16:04:33.253Z,49.70
2018-04-24T16:07:00.893Z,49.70
2018-04-24T16:09:28.415Z,49.50
2018-04-24T16:11:55.929Z,50.00
2018-04-24T16:14:23.505Z,50.70
2018-04-24T16:16:51.035Z,50.70
2018-04-24T16:19:18.591Z,50.70
2018-04-24T16:21:46.844Z,50.10
2018-04-24T16:24:15.180Z,50.20
2018-04-24T16:26:42.669Z,50.20
2018-04-24T16:29:10.950Z,51.20
2018-04-24T16:31:39.280Z,51.90
2018-04-24T16:34:07.607Z,51.20
2018-04-24T16:36:35.892Z,52.10
2018-04-24T16:39:04.167Z,52.10
2018-04-24T16:41:32.438Z,52.50
2018-04-24T16:44:00.758Z,52.40
2018-04-24T16:46:28.285Z,52.40
2018-04-24T16:48:56.669Z,54.00
2018-04-24T16:51:24.319Z,54.00
2018-04-24T16:53:53.337Z,53.90
2018-04-24T16:56:21.000Z,53.90
2018-04-24T16:58:48.509Z,54.10
2018-04-24T17:01:16.029Z,54.00
2018-04-24T17:03:43.584Z,53.70
2018-04-24T17:06:11.138Z,54.70
2018-04-24T17:08:39.397Z,54.60
2018-04-24T17:11:07.078Z,54.60
2018-04-24T17:13:34.758Z,55.40
2018-04-24T17:16:02.320Z,54.80
2018-04-24T17:18:29.834Z,55.60
2018-04-24T17:20:58.875Z,54.50
2018-04-24T17:23:26.426Z,54.50
2018-04-24T17:25:54.596Z,53.60
2018-04-24T17:28:22.152Z,53.90
2018-04-24T17:30:49.792Z,54.30
2018-04-24T17:33:17.273Z,54.20
2018-04-24T17:35:45.069Z,54.50
2018-04-24T17:38:12.598Z,55.00
2018-04-24T17:40:40.114Z,55.20
2018-04-24T17:43:08.392Z,55.50
2018-04-24T17:45:37.373Z,56.50
2018-04-24T17:48:04.884Z,56.40
2018-04-24T17:50:32.505Z,56.90
2018-04-24T17:53:00.788Z,56.40
2018-04-24T17:55:29.066Z,56.10
2018-04-24T17:57:56.607Z,56.10
2018-04-24T18:00:24.124Z,57.50
2018-04-24T18:02:51.742Z,56.60
2018-04-24T18:05:20.022Z,56.60
2018-04-24T18:07:48.386Z,57.90
2018-04-24T18:10:16.678Z,57.40
2018-04-24T18:12:44.960Z,58.50
2018-04-24T18:15:12.492Z,58.50
2018-04-24T18:17:40.016Z,57.50
2018-04-24T18:20:07.645Z,58.70
2018-04-24T18:22:35.157Z,58.20
2018-04-24T18:25:02.673Z,58.90
2018-04-24T18:27:30.265Z,59.50
2018-04-24T18:29:58.163Z,59.40
2018-04-24T18:32:26.586Z,60.70
2018-04-24T18:34:54.600Z,60.80
2018-04-24T18:37:22.139Z,60.30
2018-04-24T18:39:49.646Z,61.40
2018-04-24T18:42:17.233Z,62.70
2018-04-24T18:44:45.430Z,63.10
2018-04-24T18:47:13.008Z,64.20
2018-04-24T18:49:41.314Z,65.00
2018-04-24T18:52:09.987Z,66.10
2018-04-24T18:54:38.300Z,66.40
2018-04-24T18:57:05.873Z,66.40
2018-04-24T18:59:33.521Z,67.00
2018-04-24T19:02:01.095Z,66.40
2018-04-24T19:04:28.610Z,66.60
2018-04-24T19:06:56.967Z,67.70
2018-04-24T19:09:24.717Z,67.50
2018-04-24T19:11:52.262Z,68.30
2018-04-24T19:14:25.356Z,68.70
2018-04-24T19:16:52.926Z,68.30
2018-04-24T19:19:26.363Z,68.50
2018-04-24T19:21:53.881Z,68.60
2018-04-24T19:24:27.141Z,68.90
2018-04-24T19:26:55.486Z,69.40
2018-04-24T19:29:23.774Z,70.30
2018-04-24T19:31:57.021Z,70.30
2018-04-24T19:34:24.725Z,70.40
2018-04-24T19:36:53.089Z,70.40
2018-04-24T19:39:27.048Z,70.80
2018-04-24T19:41:54.606Z,70.80
2018-04-24T19:44:22.122Z,70.90
2018-04-24T19:46:50.398Z,71.70
2018-04-24T19:49:25.047Z,71.70
2018-04-24T19:51:53.455Z,72.70
2018-04-24T19:54:21.075Z,71.80
2018-04-24T19:56:49.343Z,72.80
2018-04-24T19:59:17.612Z,73.10
2018-04-24T20:01:45.883Z,73.10
2018-04-24T20:04:13.404Z,72.90
2018-04-24T20:06:40.956Z,72.70
2018-04-24T20:09:08.479Z,71.90
2018-04-24T20:11:36.925Z,71.20
2018-04-24T20:14:05.322Z,71.50
2018-04-24T20:16:34.734Z,70.50
2018-04-24T20:19:03.005Z,70.20
2018-04-24T20:21:31.288Z,70.30
2018-04-24T20:23:59.569Z,70.30
2018-04-24T20:26:27.867Z,70.90
2018-04-24T20:28:55.413Z,70.80
2018-04-24T20:31:23.292Z,72.40
2018-04-24T20:33:51.025Z,72.20
2018-04-24T20:36:19.297Z,72.60
2018-04-24T20:38:47.584Z,72.80
2018-04-24T20:41:15.873Z,72.90
2018-04-24T20:43:43.404Z,72.90
2018-04-24T20:46:10.993Z,73.60
2018-04-24T20:48:38.510Z,72.80
2018-04-24T20:51:06.195Z,73.90
2018-04-24T20:53:34.478Z,74.60
2018-04-24T20:56:03.199Z,75.20
2018-04-24T20:58:30.839Z,75.10
2018-04-24T21:00:58.419Z,75.70
2018-04-24T21:03:26.651Z,75.00
2018-04-24T21:05:54.948Z,76.40
2018-04-24T21:08:23.067Z,76.40
2018-04-24T21:10:50.592Z,75.80
2018-04-24T21:13:18.192Z,74.80
2018-04-24T21:15:46.410Z,75.80
2018-04-24T21:18:14.860Z,75.80
2018-04-24T21:20:43.875Z,75.50
2018-04-24T21:23:12.174Z,75.80
2018-04-24T21:25:39.685Z,75.70
2018-04-24T21:28:07.473Z,74.60
2018-04-24T21:30:35.756Z,74.20
2018-04-24T21:33:04.053Z,73.50
2018-04-24T21:35:31.571Z,73.40
2018-04-24T21:37:59.090Z,74.50
2018-04-24T21:40:26.610Z,74.20
2018-04-24T21:42:54.962Z,75.50
2018-04-24T21:45:22.513Z,75.50
2018-04-24T21:47:50.027Z,74.70
2018-04-24T21:50:19.129Z,75.40
2018-04-24T21:52:46.653Z,75.40
2018-04-24T21:55:14.925Z,75.50
2018-04-24T21:57:43.208Z,75.90
2018-04-24T22:00:15.335Z,75.70
2018-04-24T22:02:42.930Z,75.70
2018-04-24T22:05:11.280Z,76.80
2018-04-24T22:07:38.937Z,76.80
2018-04-24T22:10:06.456Z,77.10
2018-04-24T22:12:34.438Z,77.20
2018-04-24T22:15:02.005Z,77.40
2018-04-24T22:17:29.701Z,77.20
2018-04-24T22:19:57.208Z,77.80
2018-04-24T22:22:25.555Z,77.30
2018-04-24T22:24:53.833Z,77.60
2018-04-24T22:27:22.190Z,77.30
2018-04-24T22:29:50.468Z,78.20
2018-04-24T22:32:18.745Z,77.80
2018-04-24T22:34:47.770Z,77.80
2018-04-24T22:37:16.105Z,77.60
2018-04-24T22:39:43.666Z,77.60
2018-04-24T22:42:11.145Z,77.80
2018-04-24T22:44:39.785Z,77.60
2018-04-24T22:47:07.285Z,77.90
2018-04-24T22:49:35.558Z,76.90
2018-04-24T22:52:03.840Z,77.80
2018-04-24T22:54:32.120Z,77.50
2018-04-24T22:57:01.055Z,78.00
2018-04-24T22:59:28.563Z,78.00
2018-04-24T23:01:56.938Z,79.30
2018-04-24T23:04:25.957Z,79.30
2018-04-24T23:06:54.237Z,78.00
2018-04-24T23:09:21.761Z,77.90
2018-04-24T23:12:01.038Z,78.80
2018-04-24T23:14:40.470Z,77.70
2018-04-24T23:17:19.772Z,79.10
2018-04-24T23:19:59.288Z,79.50
2018-04-24T23:22:30.552Z,79.30
2018-04-24T23:24:58.062Z,79.70
2018-04-24T23:27:25.610Z,79.10
2018-04-24T23:29:53.115Z,78.70
2018-04-24T23:32:20.622Z,78.90
2018-04-24T23:34:48.157Z,78.80
2018-04-24T23:37:16.456Z,78.80
2018-04-24T23:39:44.900Z,79.60
2018-04-24T23:42:12.426Z,79.60
2018-04-24T23:44:39.936Z,79.30
2018-04-24T23:47:08.833Z,79.70
2018-04-24T23:49:37.104Z,80.00
2018-04-24T23:52:05.381Z,79.50
2018-04-24T23:54:33.733Z,80.00
2018-04-24T23:57:01.246Z,79.90
2018-04-24T23:59:28.840Z,80.20
